Time,TemperatureF,DewpointF,PressureIn,WindDirection,WindDirectionDegrees,WindSpeedMPH,WindSpeedGustMPH,Humidity,HourlyPrecipIn,Conditions,Clouds,dailyrainin,SoftwareType,DateUTC
2013-04-05 00:00:00,41.9,4.8,0.00,SSW,193,2.7,5.8,21,0.00,,,0.00,VWS V13.01,2013-04-05 04:00:00,
2013-04-05 00:05:00,42.1,5.0,0.00,SE,136,13.2,13.2,21,0.00,,,0.00,VWS V13.01,2013-04-05 04:05:00,
2013-04-05 00:10:00,42.1,5.0,0.00,South,187,6.3,6.3,21,0.00,,,0.00,VWS V13.01,2013-04-05 04:10:00,
2013-04-05 00:16:00,42.1,5.0,0.00,South,176,8.1,8.1,21,0.00,,,0.00,VWS V13.01,2013-04-05 04:16:00,
2013-04-05 00:21:00,42.1,5.0,0.00,SSE,155,7.2,8.1,21,0.00,,,0.00,VWS V13.01,2013-04-05 04:21:00,
2013-04-05 00:26:00,42.1,5.0,0.00,SE,138,4.0,5.8,21,0.00,,,0.00,VWS V13.01,2013-04-05 04:26:00,
2013-04-05 00:31:00,41.7,4.7,0.00,South,170,2.7,2.7,21,0.00,,,0.00,VWS V13.01,2013-04-05 04:31:00,
2013-04-05 00:36:00,41.5,4.5,0.00,South,170,5.4,5.8,21,0.00,,,0.00,VWS V13.01,2013-04-05 04:36:00,
2013-04-05 00:41:00,41.5,4.5,0.00,ESE,102,4.0,4.0,21,0.00,,,0.00,VWS V13.01,2013-04-05 04:41:00,
2013-04-05 00:46:00,41.4,4.4,0.00,SE,130,3.1,4.0,21,0.00,,,0.00,VWS V13.01,2013-04-05 04:46:00,
2013-04-05 00:52:00,41.4,4.4,0.00,WSW,256,5.8,8.3,21,0.00,,,0.00,VWS V13.01,2013-04-05 04:52:00,
2013-04-05 00:57:00,41.5,4.5,0.00,ESE,123,5.4,6.3,21,0.00,,,0.00,VWS V13.01,2013-04-05 04:57:00,
2013-04-05 01:02:00,41.5,4.5,0.00,SE,128,8.3,8.3,21,0.00,,,0.00,VWS V13.01,2013-04-05 05:02:00,
2013-04-05 01:07:00,41.4,4.4,0.00,SE,142,5.4,5.4,21,0.00,,,0.00,VWS V13.01,2013-04-05 05:07:00,
2013-04-05 01:12:00,41.2,4.2,0.00,SE,132,3.6,6.3,21,0.00,,,0.00,VWS V13.01,2013-04-05 05:12:00,
2013-04-05 01:17:00,41.0,4.1,0.00,SSE,156,4.9,5.4,21,0.00,,,0.00,VWS V13.01,2013-04-05 05:17:00,
2013-04-05 01:22:00,41.0,4.1,0.00,SE,133,4.9,4.9,21,0.00,,,0.00,VWS V13.01,2013-04-05 05:22:00,
2013-04-05 01:27:00,40.8,3.9,0.00,SE,124,4.0,5.8,21,0.00,,,0.00,VWS V13.01,2013-04-05 05:27:00,
2013-04-05 01:32:00,40.6,3.8,0.00,SE,128,4.0,4.0,21,0.00,,,0.00,VWS V13.01,2013-04-05 05:32:00,
2013-04-05 01:37:00,40.5,3.6,0.00,ESE,118,4.9,5.8,21,0.00,,,0.00,VWS V13.01,2013-04-05 05:37:00,
2013-04-05 01:42:00,40.3,3.5,0.00,SSE,150,2.2,3.6,21,0.00,,,0.00,VWS V13.01,2013-04-05 05:42:00,
2013-04-05 01:47:00,40.5,3.6,0.00,East,96,4.0,5.4,21,0.00,,,0.00,VWS V13.01,2013-04-05 05:47:00,
2013-04-05 01:52:00,40.5,3.6,0.00,ESE,120,4.9,4.9,21,0.00,,,0.00,VWS V13.01,2013-04-05 05:52:00,
2013-04-05 01:57:00,40.3,3.5,0.00,SE,143,3.6,8.7,21,0.00,,,0.00,VWS V13.01,2013-04-05 05:57:00,
2013-04-05 02:02:00,40.3,3.5,0.00,ESE,108,3.1,3.1,21,0.00,,,0.00,VWS V13.01,2013-04-05 06:02:00,
2013-04-05 02:07:00,40.1,3.3,0.00,ESE,107,4.0,5.4,21,0.00,,,0.00,VWS V13.01,2013-04-05 06:07:00,
2013-04-05 02:12:00,40.3,3.5,0.00,ESE,118,3.1,3.1,21,0.00,,,0.00,VWS V13.01,2013-04-05 06:12:00,
2013-04-05 02:17:00,39.7,3.0,0.00,ESE,115,4.0,5.4,21,0.00,,,0.00,VWS V13.01,2013-04-05 06:17:00,
2013-04-05 02:22:00,39.6,2.9,0.00,ESE,106,4.0,4.0,21,0.00,,,0.00,VWS V13.01,2013-04-05 06:22:00,
2013-04-05 02:27:00,39.6,2.9,0.00,East,97,5.8,5.8,21,0.00,,,0.00,VWS V13.01,2013-04-05 06:27:00,
2013-04-05 02:32:00,39.4,2.7,0.00,SE,126,4.0,4.0,21,0.00,,,0.00,VWS V13.01,2013-04-05 06:32:00,
2013-04-05 02:37:00,39.2,2.6,0.00,SE,131,4.5,4.5,21,0.00,,,0.00,VWS V13.01,2013-04-05 06:37:00,
2013-04-05 02:42:00,39.2,2.6,0.00,SE,126,2.2,4.0,21,0.00,,,0.00,VWS V13.01,2013-04-05 06:42:00,
2013-04-05 02:47:00,38.8,2.3,0.00,East,96,0.0,3.6,21,0.00,,,0.00,VWS V13.01,2013-04-05 06:47:00,
2013-04-05 02:53:00,39.0,2.4,0.00,ESE,106,3.6,3.6,21,0.00,,,0.00,VWS V13.01,2013-04-05 06:53:00,
2013-04-05 02:58:00,38.7,2.1,0.00,SE,137,6.3,7.6,21,0.00,,,0.00,VWS V13.01,2013-04-05 06:58:00,
2013-04-05 03:03:00,39.2,2.6,0.00,South,169,3.6,3.6,21,0.00,,,0.00,VWS V13.01,2013-04-05 07:03:00,
2013-04-05 03:08:00,39.7,3.0,0.00,SSE,157,2.7,2.7,21,0.00,,,0.00,VWS V13.01,2013-04-05 07:08:00,
2013-04-05 03:13:00,39.6,2.9,0.00,SSE,159,2.7,2.7,21,0.00,,,0.00,VWS V13.01,2013-04-05 07:13:00,
2013-04-05 03:18:00,39.6,2.9,0.00,SE,133,8.1,8.1,21,0.00,,,0.00,VWS V13.01,2013-04-05 07:18:00,
2013-04-05 03:23:00,39.9,3.2,0.00,SE,140,4.0,4.9,21,0.00,,,0.00,VWS V13.01,2013-04-05 07:23:00,
2013-04-05 03:28:00,40.1,3.3,0.00,South,184,2.7,3.1,21,0.00,,,0.00,VWS V13.01,2013-04-05 07:28:00,
2013-04-05 03:33:00,40.1,3.3,0.00,South,178,3.6,4.0,21,0.00,,,0.00,VWS V13.01,2013-04-05 07:33:00,
2013-04-05 03:38:00,40.1,3.3,0.00,SE,140,4.9,7.6,21,0.00,,,0.00,VWS V13.01,2013-04-05 07:38:00,
2013-04-05 03:43:00,40.1,3.3,0.00,East,82,0.0,0.0,21,0.00,,,0.00,VWS V13.01,2013-04-05 07:43:00,
2013-04-05 03:48:00,40.1,3.3,0.00,SE,130,3.1,4.0,21,0.00,,,0.00,VWS V13.01,2013-04-05 07:48:00,
2013-04-05 03:53:00,40.1,3.3,0.00,South,187,4.5,4.5,21,0.00,,,0.00,VWS V13.01,2013-04-05 07:53:00,
2013-04-05 03:58:00,40.1,3.3,0.00,SSE,154,3.6,4.0,21,0.00,,,0.00,VWS V13.01,2013-04-05 07:58:00,
2013-04-05 04:03:00,40.3,3.5,0.00,South,170,3.1,4.0,21,0.00,,,0.00,VWS V13.01,2013-04-05 08:03:00,
2013-04-05 04:08:00,40.3,3.5,0.00,SE,143,2.7,2.7,21,0.00,,,0.00,VWS V13.01,2013-04-05 08:08:00,
2013-04-05 04:13:00,40.1,3.3,0.00,SSW,211,5.8,7.6,21,0.00,,,0.00,VWS V13.01,2013-04-05 08:13:00,
2013-04-05 04:18:00,40.1,0.0,0.00,SE,137,3.1,3.1,18,0.00,,,0.00,VWS V13.01,2013-04-05 08:18:00,
2013-04-05 04:24:00,40.1,0.0,0.00,SE,132,3.1,5.4,18,0.00,,,0.00,VWS V13.01,2013-04-05 08:24:00,
2013-04-05 04:29:00,40.1,0.0,0.00,SSW,210,3.6,3.6,18,0.00,,,0.00,VWS V13.01,2013-04-05 08:29:00,
2013-04-05 04:34:00,40.1,0.0,0.00,ESE,122,6.3,6.3,18,0.00,,,0.00,VWS V13.01,2013-04-05 08:34:00,
2013-04-05 04:39:00,40.1,0.0,0.00,SE,133,3.1,3.1,18,0.00,,,0.00,VWS V13.01,2013-04-05 08:39:00,
2013-04-05 04:44:00,40.1,0.0,0.00,SW,226,6.3,6.3,18,0.00,,,0.00,VWS V13.01,2013-04-05 08:44:00,
2013-04-05 04:49:00,40.1,0.0,0.00,ESE,111,3.6,5.8,18,0.00,,,0.00,VWS V13.01,2013-04-05 08:49:00,
2013-04-05 04:54:00,39.9,-0.1,0.00,SSW,213,2.2,5.4,18,0.00,,,0.00,VWS V13.01,2013-04-05 08:54:00,
2013-04-05 04:59:00,39.9,-0.1,0.00,WSW,246,3.1,5.4,18,0.00,,,0.00,VWS V13.01,2013-04-05 08:59:00,
2013-04-05 05:04:00,39.7,-0.3,0.00,SSE,164,2.7,4.9,18,0.00,,,0.00,VWS V13.01,2013-04-05 09:04:00,
2013-04-05 05:09:00,39.7,-0.3,0.00,ESE,122,5.4,5.4,18,0.00,,,0.00,VWS V13.01,2013-04-05 09:09:00,
2013-04-05 05:14:00,39.6,-0.4,0.00,SSE,168,0.0,0.0,18,0.00,,,0.00,VWS V13.01,2013-04-05 09:14:00,
2013-04-05 05:19:00,39.2,-0.7,0.00,SSE,160,4.0,4.5,18,0.00,,,0.00,VWS V13.01,2013-04-05 09:19:00,
2013-04-05 05:24:00,39.0,0.3,0.00,South,174,0.0,0.0,19,0.00,,,0.00,VWS V13.01,2013-04-05 09:24:00,
2013-04-05 05:29:00,39.0,0.3,0.00,SSE,157,2.7,3.1,19,0.00,,,0.00,VWS V13.01,2013-04-05 09:29:00,
2013-04-05 05:34:00,39.2,-0.7,0.00,SE,141,0.0,2.7,18,0.00,,,0.00,VWS V13.01,2013-04-05 09:34:00,
2013-04-05 05:40:00,39.2,-0.7,0.00,SE,124,2.7,4.0,18,0.00,,,0.00,VWS V13.01,2013-04-05 09:40:00,
2013-04-05 05:45:00,38.8,0.1,0.00,East,79,3.6,3.6,19,0.00,,,0.00,VWS V13.01,2013-04-05 09:45:00,
2013-04-05 05:50:00,38.8,0.1,0.00,South,172,2.7,3.6,19,0.00,,,0.00,VWS V13.01,2013-04-05 09:50:00,
2013-04-05 05:55:00,38.7,2.1,0.00,SSW,212,4.0,8.3,21,0.00,,,0.00,VWS V13.01,2013-04-05 09:55:00,
2013-04-05 06:00:00,38.7,2.1,0.00,SSW,212,0.0,0.0,21,0.00,,,0.00,VWS V13.01,2013-04-05 10:00:00,
2013-04-05 06:05:00,38.5,2.0,0.00,SSE,147,3.1,4.0,21,0.00,,,0.00,VWS V13.01,2013-04-05 10:05:00,
2013-04-05 06:10:00,38.5,2.0,0.00,WSW,254,0.0,0.0,21,0.00,,,0.00,VWS V13.01,2013-04-05 10:10:00,
2013-04-05 06:15:00,38.3,1.8,0.00,South,178,3.1,3.6,21,0.00,,,0.00,VWS V13.01,2013-04-05 10:15:00,
2013-04-05 06:20:00,38.3,1.8,0.00,ESE,121,2.2,2.7,21,0.00,,,0.00,VWS V13.01,2013-04-05 10:20:00,
2013-04-05 06:25:00,38.1,1.6,0.00,South,170,0.0,0.0,21,0.00,,,0.00,VWS V13.01,2013-04-05 10:25:00,
2013-04-05 06:30:00,38.1,1.6,0.00,SSE,153,2.7,2.7,21,0.00,,,0.00,VWS V13.01,2013-04-05 10:30:00,
2013-04-05 06:35:00,37.9,1.5,0.00,SW,229,0.0,3.6,21,0.00,,,0.00,VWS V13.01,2013-04-05 10:35:00,
2013-04-05 06:40:00,37.9,1.5,0.00,WSW,252,0.0,0.0,21,0.00,,,0.00,VWS V13.01,2013-04-05 10:40:00,
2013-04-05 06:45:00,37.9,1.5,0.00,West,272,2.7,2.7,21,0.00,,,0.00,VWS V13.01,2013-04-05 10:45:00,
2013-04-05 06:50:00,37.9,1.5,0.00,WSW,249,6.3,6.3,21,0.00,,,0.00,VWS V13.01,2013-04-05 10:50:00,
2013-04-05 06:56:00,37.9,1.5,0.00,WSW,258,0.0,0.0,21,0.00,,,0.00,VWS V13.01,2013-04-05 10:56:00,
2013-04-05 07:01:00,37.8,1.4,0.00,SSE,162,2.7,2.7,21,0.00,,,0.00,VWS V13.01,2013-04-05 11:01:00,
2013-04-05 07:06:00,37.8,1.4,0.00,ESE,123,0.0,0.0,21,0.00,,,0.00,VWS V13.01,2013-04-05 11:06:00,
2013-04-05 07:11:00,37.8,1.4,0.00,SSE,157,2.7,5.8,21,0.00,,,0.00,VWS V13.01,2013-04-05 11:11:00,
2013-04-05 07:16:00,37.9,1.5,0.00,South,169,0.0,0.0,21,0.00,,,0.00,VWS V13.01,2013-04-05 11:16:00,
2013-04-05 07:21:00,37.9,1.5,0.00,SW,230,4.9,4.9,21,0.00,,,0.00,VWS V13.01,2013-04-05 11:21:00,
2013-04-05 07:26:00,38.1,1.6,0.00,South,188,0.0,3.6,21,0.00,,,0.00,VWS V13.01,2013-04-05 11:26:00,
2013-04-05 07:31:00,38.1,1.6,0.00,ESE,108,2.7,3.1,21,0.00,,,0.00,VWS V13.01,2013-04-05 11:31:00,
2013-04-05 07:36:00,38.3,1.8,0.00,SW,221,0.0,3.1,21,0.00,,,0.00,VWS V13.01,2013-04-05 11:36:00,
2013-04-05 07:41:00,38.7,2.1,0.00,West,271,2.7,2.7,21,0.00,,,0.00,VWS V13.01,2013-04-05 11:41:00,
2013-04-05 07:47:00,38.8,2.3,0.00,West,269,0.0,2.7,21,0.00,,,0.00,VWS V13.01,2013-04-05 11:47:00,
2013-04-05 07:52:00,38.8,2.3,0.00,SSW,192,2.7,3.6,21,0.00,,,0.00,VWS V13.01,2013-04-05 11:52:00,
2013-04-05 07:57:00,39.2,2.6,0.00,WSW,247,0.0,0.0,21,0.00,,,0.00,VWS V13.01,2013-04-05 11:57:00,
2013-04-05 08:02:00,39.4,2.7,0.00,SSW,205,3.1,3.1,21,0.00,,,0.00,VWS V13.01,2013-04-05 12:02:00,
2013-04-05 08:07:00,39.7,3.0,0.00,West,261,0.0,0.0,21,0.00,,,0.00,VWS V13.01,2013-04-05 12:07:00,
2013-04-05 08:12:00,40.3,3.5,0.00,West,273,2.2,2.2,21,0.00,,,0.00,VWS V13.01,2013-04-05 12:12:00,
2013-04-05 08:17:00,41.0,4.1,0.00,SE,138,2.2,2.7,21,0.00,,,0.00,VWS V13.01,2013-04-05 12:17:00,
2013-04-05 08:22:00,41.2,4.2,0.00,ESE,115,3.1,3.1,21,0.00,,,0.00,VWS V13.01,2013-04-05 12:22:00,
2013-04-05 08:27:00,41.0,4.1,0.00,West,263,3.1,3.6,21,0.00,,,0.00,VWS V13.01,2013-04-05 12:27:00,
2013-04-05 08:32:00,40.5,3.6,0.00,WSW,254,5.4,6.3,21,0.00,,,0.00,VWS V13.01,2013-04-05 12:32:00,
2013-04-05 08:37:00,40.5,3.6,0.00,WSW,258,7.6,7.6,21,0.00,,,0.00,VWS V13.01,2013-04-05 12:37:00,
2013-04-05 08:42:00,40.8,3.9,0.00,WSW,253,0.0,3.6,21,0.00,,,0.00,VWS V13.01,2013-04-05 12:42:00,
2013-04-05 08:47:00,41.7,4.7,0.00,ESE,102,3.6,3.6,21,0.00,,,0.00,VWS V13.01,2013-04-05 12:47:00,
2013-04-05 08:52:00,42.3,5.1,0.00,WSW,246,4.0,4.0,21,0.00,,,0.00,VWS V13.01,2013-04-05 12:52:00,
2013-04-05 08:57:00,42.4,5.3,0.00,SSE,150,3.1,3.6,21,0.00,,,0.00,VWS V13.01,2013-04-05 12:57:00,
2013-04-05 09:02:00,43.5,5.1,0.00,SE,129,4.9,4.9,20,0.00,,,0.00,VWS V13.01,2013-04-05 13:02:00,
2013-04-05 09:07:00,43.9,3.1,0.00,WNW,292,3.1,5.8,18,0.00,,,0.00,VWS V13.01,2013-04-05 13:07:00,
2013-04-05 09:12:00,43.3,2.7,0.00,SSE,168,5.4,5.4,18,0.00,,,0.00,VWS V13.01,2013-04-05 13:12:00,
2013-04-05 09:17:00,43.5,2.8,0.00,WSW,253,5.8,5.8,18,0.00,,,0.00,VWS V13.01,2013-04-05 13:17:00,
2013-04-05 09:23:00,43.7,3.0,0.00,SW,230,3.6,5.8,18,0.00,,,0.00,VWS V13.01,2013-04-05 13:23:00,
2013-04-05 09:28:00,43.9,3.1,0.00,SW,234,4.0,4.0,18,0.00,,,0.00,VWS V13.01,2013-04-05 13:28:00,
2013-04-05 09:33:00,44.4,3.6,0.00,SW,219,4.0,4.0,18,0.00,,,0.00,VWS V13.01,2013-04-05 13:33:00,
2013-04-05 09:38:00,45.1,6.5,0.00,SE,131,4.0,4.9,20,0.00,,,0.00,VWS V13.01,2013-04-05 13:38:00,
2013-04-05 09:43:00,46.4,6.4,0.00,SE,130,4.0,4.5,19,0.00,,,0.00,VWS V13.01,2013-04-05 13:43:00,
2013-04-05 09:48:00,47.5,7.3,0.00,West,275,3.1,4.0,19,0.00,,,0.00,VWS V13.01,2013-04-05 13:48:00,
2013-04-05 09:53:00,47.5,7.3,0.00,SSE,151,2.7,2.7,19,0.00,,,0.00,VWS V13.01,2013-04-05 13:53:00,
2013-04-05 09:58:00,48.0,7.7,0.00,West,261,4.0,4.0,19,0.00,,,0.00,VWS V13.01,2013-04-05 13:58:00,
2013-04-05 10:03:00,47.3,7.1,0.00,West,261,0.0,0.0,19,0.00,,,0.00,VWS V13.01,2013-04-05 14:03:00,
2013-04-05 10:08:00,47.7,7.4,0.00,SSW,203,0.0,2.7,19,0.00,,,0.00,VWS V13.01,2013-04-05 14:08:00,
2013-04-05 10:13:00,48.2,7.9,0.00,SSE,151,3.6,4.0,19,0.00,,,0.00,VWS V13.01,2013-04-05 14:13:00,
2013-04-05 10:19:00,49.3,8.8,0.00,South,184,0.0,3.6,19,0.00,,,0.00,VWS V13.01,2013-04-05 14:19:00,
2013-04-05 10:24:00,49.3,8.8,0.00,East,79,0.0,2.2,19,0.00,,,0.00,VWS V13.01,2013-04-05 14:24:00,
2013-04-05 10:29:00,50.2,9.5,0.00,SSE,148,0.0,0.0,19,0.00,,,0.00,VWS V13.01,2013-04-05 14:29:00,
2013-04-05 10:34:00,50.7,10.0,0.00,WSW,253,0.0,0.0,19,0.00,,,0.00,VWS V13.01,2013-04-05 14:34:00,
2013-04-05 10:39:00,51.1,10.3,0.00,NE,47,2.7,3.6,19,0.00,,,0.00,VWS V13.01,2013-04-05 14:39:00,
2013-04-05 10:45:00,50.7,10.0,0.00,SSW,208,4.0,4.5,19,0.00,,,0.00,VWS V13.01,2013-04-05 14:45:00,
2013-04-05 10:50:00,50.0,9.4,0.00,WSW,244,4.9,5.8,19,0.00,,,0.00,VWS V13.01,2013-04-05 14:50:00,
2013-04-05 10:55:00,49.8,9.2,0.00,ESE,108,3.1,3.1,19,0.00,,,0.00,VWS V13.01,2013-04-05 14:55:00,
2013-04-05 11:00:00,50.7,10.0,0.00,West,270,6.3,6.3,19,0.00,,,0.00,VWS V13.01,2013-04-05 15:00:00,
2013-04-05 11:05:00,50.5,9.8,0.00,South,177,2.7,2.7,19,0.00,,,0.00,VWS V13.01,2013-04-05 15:05:00,
2013-04-05 11:10:00,50.4,9.7,0.00,West,279,3.6,4.9,19,0.00,,,0.00,VWS V13.01,2013-04-05 15:10:00,
2013-04-05 11:15:00,50.5,9.8,0.00,SE,132,3.1,3.6,19,0.00,,,0.00,VWS V13.01,2013-04-05 15:15:00,
2013-04-05 11:20:00,52.2,10.0,0.00,SE,124,2.7,3.1,18,0.00,,,0.00,VWS V13.01,2013-04-05 15:20:00,
2013-04-05 11:25:00,53.1,10.7,0.00,SE,141,5.4,5.4,18,0.00,,,0.00,VWS V13.01,2013-04-05 15:25:00,
2013-04-05 11:30:00,53.6,11.1,0.00,SW,226,2.2,2.7,18,0.00,,,0.00,VWS V13.01,2013-04-05 15:30:00,
2013-04-05 11:35:00,53.8,11.3,0.00,WSW,252,0.0,0.0,18,0.00,,,0.00,VWS V13.01,2013-04-05 15:35:00,
2013-04-05 11:40:00,53.1,10.7,0.00,West,273,3.6,5.8,18,0.00,,,0.00,VWS V13.01,2013-04-05 15:40:00,
2013-04-05 11:46:00,52.5,10.2,0.00,SW,220,4.9,5.8,18,0.00,,,0.00,VWS V13.01,2013-04-05 15:46:00,
2013-04-05 11:51:00,53.2,10.9,0.00,West,280,3.1,5.4,18,0.00,,,0.00,VWS V13.01,2013-04-05 15:51:00,
2013-04-05 11:56:00,54.3,11.7,0.00,West,267,5.4,5.4,18,0.00,,,0.00,VWS V13.01,2013-04-05 15:56:00,
2013-04-05 12:02:00,53.6,11.1,0.00,West,262,0.0,3.6,18,0.00,,,0.00,VWS V13.01,2013-04-05 16:02:00,
2013-04-05 12:07:00,53.6,11.1,0.00,SW,214,3.6,5.4,18,0.00,,,0.00,VWS V13.01,2013-04-05 16:07:00,
2013-04-05 12:12:00,53.4,11.0,0.00,WSW,247,4.0,4.0,18,0.00,,,0.00,VWS V13.01,2013-04-05 16:12:00,
2013-04-05 12:17:00,53.1,10.7,0.00,West,277,7.6,7.6,18,0.00,,,0.00,VWS V13.01,2013-04-05 16:17:00,
2013-04-05 12:22:00,52.7,10.4,0.00,West,265,7.6,10.5,18,0.00,,,0.00,VWS V13.01,2013-04-05 16:22:00,
2013-04-05 12:27:00,53.2,10.9,0.00,WNW,300,3.6,6.3,18,0.00,,,0.00,VWS V13.01,2013-04-05 16:27:00,
2013-04-05 12:32:00,53.8,11.3,0.00,WSW,251,4.0,4.0,18,0.00,,,0.00,VWS V13.01,2013-04-05 16:32:00,
2013-04-05 12:37:00,54.1,11.6,0.00,WSW,248,8.1,8.1,18,0.00,,,0.00,VWS V13.01,2013-04-05 16:37:00,
2013-04-05 12:42:00,53.6,11.1,0.00,WSW,243,8.7,11.0,18,0.00,,,0.00,VWS V13.01,2013-04-05 16:42:00,
2013-04-05 12:47:00,54.0,11.4,0.00,NNW,331,4.0,6.3,18,0.00,,,0.00,VWS V13.01,2013-04-05 16:47:00,
2013-04-05 12:52:00,54.1,11.6,0.00,West,267,8.7,11.4,18,0.00,,,0.00,VWS V13.01,2013-04-05 16:52:00,
2013-04-05 12:57:00,54.7,12.0,0.00,WSW,245,4.9,8.7,18,0.00,,,0.00,VWS V13.01,2013-04-05 16:57:00,
2013-04-05 13:02:00,54.7,12.0,0.00,NW,308,10.1,10.1,18,0.00,,,0.00,VWS V13.01,2013-04-05 17:02:00,
2013-04-05 13:08:00,54.3,11.7,0.00,NNW,341,6.7,10.1,18,0.00,,,0.00,VWS V13.01,2013-04-05 17:08:00,
2013-04-05 13:13:00,54.7,12.0,0.00,WSW,254,4.9,5.4,18,0.00,,,0.00,VWS V13.01,2013-04-05 17:13:00,
2013-04-05 13:18:00,55.6,11.5,0.00,WSW,257,6.3,6.3,17,0.00,,,0.00,VWS V13.01,2013-04-05 17:18:00,
2013-04-05 13:23:00,55.6,11.5,0.00,West,280,8.3,11.0,17,0.00,,,0.00,VWS V13.01,2013-04-05 17:23:00,
2013-04-05 13:28:00,55.9,11.8,0.00,NNW,328,10.1,10.5,17,0.00,,,0.00,VWS V13.01,2013-04-05 17:28:00,
2013-04-05 13:33:00,55.6,11.5,0.00,West,263,8.3,8.3,17,0.00,,,0.00,VWS V13.01,2013-04-05 17:33:00,
2013-04-05 13:38:00,55.9,11.8,0.00,West,265,8.1,8.1,17,0.00,,,0.00,VWS V13.01,2013-04-05 17:38:00,
2013-04-05 13:43:00,56.1,11.9,0.00,SSW,205,3.1,5.4,17,0.00,,,0.00,VWS V13.01,2013-04-05 17:43:00,
2013-04-05 13:48:00,56.7,12.4,0.00,SW,226,2.7,4.0,17,0.00,,,0.00,VWS V13.01,2013-04-05 17:48:00,
2013-04-05 13:53:00,57.0,12.7,0.00,West,273,3.6,8.1,17,0.00,,,0.00,VWS V13.01,2013-04-05 17:53:00,
2013-04-05 13:59:00,57.2,12.8,0.00,West,261,13.2,17.4,17,0.00,,,0.00,VWS V13.01,2013-04-05 17:59:00,
2013-04-05 14:04:00,57.2,12.8,0.00,SSW,206,3.1,5.8,17,0.00,,,0.00,VWS V13.01,2013-04-05 18:04:00,
2013-04-05 14:09:00,57.4,12.9,0.00,WSW,250,4.0,5.4,17,0.00,,,0.00,VWS V13.01,2013-04-05 18:09:00,
2013-04-05 14:14:00,57.4,12.9,0.00,WSW,257,7.6,8.1,17,0.00,,,0.00,VWS V13.01,2013-04-05 18:14:00,
2013-04-05 14:19:00,56.8,12.5,0.00,WSW,257,6.3,10.1,17,0.00,,,0.00,VWS V13.01,2013-04-05 18:19:00,
2013-04-05 14:24:00,57.6,13.1,0.00,WNW,294,5.4,8.3,17,0.00,,,0.00,VWS V13.01,2013-04-05 18:24:00,
2013-04-05 14:30:00,57.7,13.2,0.00,NNE,17,8.7,12.8,17,0.00,,,0.00,VWS V13.01,2013-04-05 18:30:00,
2013-04-05 14:35:00,56.8,12.5,0.00,SW,232,8.1,13.2,17,0.00,,,0.00,VWS V13.01,2013-04-05 18:35:00,
2013-04-05 14:40:00,57.0,12.7,0.00,WSW,249,3.1,6.3,17,0.00,,,0.00,VWS V13.01,2013-04-05 18:40:00,
2013-04-05 14:45:00,57.9,13.4,0.00,NW,324,8.1,8.7,17,0.00,,,0.00,VWS V13.01,2013-04-05 18:45:00,
2013-04-05 14:50:00,58.1,13.5,0.00,North,353,15.4,15.4,17,0.00,,,0.00,VWS V13.01,2013-04-05 18:50:00,
2013-04-05 14:55:00,57.2,12.8,0.00,SW,234,2.7,3.6,17,0.00,,,0.00,VWS V13.01,2013-04-05 18:55:00,
2013-04-05 15:00:00,57.2,12.8,0.00,WNW,284,5.8,5.8,17,0.00,,,0.00,VWS V13.01,2013-04-05 19:00:00,
2013-04-05 15:05:00,57.6,13.1,0.00,SW,219,8.3,8.3,17,0.00,,,0.00,VWS V13.01,2013-04-05 19:05:00,
2013-04-05 15:10:00,57.6,13.1,0.00,West,271,15.9,15.9,17,0.00,,,0.00,VWS V13.01,2013-04-05 19:10:00,
2013-04-05 15:15:00,57.4,12.9,0.00,WSW,257,8.7,8.7,17,0.00,,,0.00,VWS V13.01,2013-04-05 19:15:00,
2013-04-05 15:20:00,57.4,12.9,0.00,West,259,6.3,6.3,17,0.00,,,0.00,VWS V13.01,2013-04-05 19:20:00,
2013-04-05 15:25:00,57.4,12.9,0.00,NNW,329,10.5,10.5,17,0.00,,,0.00,VWS V13.01,2013-04-05 19:25:00,
2013-04-05 15:30:00,57.2,12.8,0.00,South,174,2.7,2.7,17,0.00,,,0.00,VWS V13.01,2013-04-05 19:30:00,
2013-04-05 15:35:00,57.2,12.8,0.00,West,271,8.3,8.3,17,0.00,,,0.00,VWS V13.01,2013-04-05 19:35:00,
2013-04-05 15:40:00,57.0,12.7,0.00,WSW,254,8.3,8.3,17,0.00,,,0.00,VWS V13.01,2013-04-05 19:40:00,
2013-04-05 15:45:00,57.4,12.9,0.00,SW,222,3.6,6.3,17,0.00,,,0.00,VWS V13.01,2013-04-05 19:45:00,
2013-04-05 15:50:00,57.4,12.9,0.00,WNW,287,5.4,10.5,17,0.00,,,0.00,VWS V13.01,2013-04-05 19:50:00,
2013-04-05 15:56:00,57.0,12.7,0.00,WSW,257,6.3,7.6,17,0.00,,,0.00,VWS V13.01,2013-04-05 19:56:00,
2013-04-05 16:01:00,56.7,12.4,0.00,NNW,331,3.1,8.3,17,0.00,,,0.00,VWS V13.01,2013-04-05 20:01:00,
2013-04-05 16:06:00,57.2,12.8,0.00,WNW,291,8.3,8.7,17,0.00,,,0.00,VWS V13.01,2013-04-05 20:06:00,
2013-04-05 16:11:00,57.4,12.9,0.00,WSW,250,4.9,8.7,17,0.00,,,0.00,VWS V13.01,2013-04-05 20:11:00,
2013-04-05 16:16:00,57.2,12.8,0.00,WSW,257,5.8,8.7,17,0.00,,,0.00,VWS V13.01,2013-04-05 20:16:00,
2013-04-05 16:21:00,57.2,12.8,0.00,WSW,248,7.2,7.2,17,0.00,,,0.00,VWS V13.01,2013-04-05 20:21:00,
2013-04-05 16:26:00,57.6,13.1,0.00,NNE,29,3.6,5.8,17,0.00,,,0.00,VWS V13.01,2013-04-05 20:26:00,
2013-04-05 16:31:00,57.4,12.9,0.00,WSW,249,11.4,15.4,17,0.00,,,0.00,VWS V13.01,2013-04-05 20:31:00,
2013-04-05 16:36:00,56.7,12.4,0.00,WSW,253,6.3,6.3,17,0.00,,,0.00,VWS V13.01,2013-04-05 20:36:00,
2013-04-05 16:41:00,57.0,12.7,0.00,West,261,4.0,8.7,17,0.00,,,0.00,VWS V13.01,2013-04-05 20:41:00,
2013-04-05 16:47:00,56.7,12.4,0.00,SSW,202,9.6,13.6,17,0.00,,,0.00,VWS V13.01,2013-04-05 20:47:00,
2013-04-05 16:52:00,55.9,11.8,0.00,WSW,252,8.1,9.6,17,0.00,,,0.00,VWS V13.01,2013-04-05 20:52:00,
2013-04-05 16:57:00,55.9,11.8,0.00,East,93,5.8,5.8,17,0.00,,,0.00,VWS V13.01,2013-04-05 20:57:00,
2013-04-05 17:02:00,55.9,11.8,0.00,West,275,11.4,11.4,17,0.00,,,0.00,VWS V13.01,2013-04-05 21:02:00,
2013-04-05 17:07:00,55.8,11.6,0.00,West,264,12.8,12.8,17,0.00,,,0.00,VWS V13.01,2013-04-05 21:07:00,
2013-04-05 17:12:00,55.2,12.5,0.00,West,274,5.8,8.3,18,0.00,,,0.00,VWS V13.01,2013-04-05 21:12:00,
2013-04-05 17:17:00,55.2,12.5,0.00,NNW,334,11.0,18.8,18,0.00,,,0.00,VWS V13.01,2013-04-05 21:17:00,
2013-04-05 17:22:00,54.5,11.9,0.00,NNW,329,2.2,13.2,18,0.00,,,0.00,VWS V13.01,2013-04-05 21:22:00,
2013-04-05 17:27:00,54.3,11.7,0.00,West,273,10.1,10.1,18,0.00,,,0.00,VWS V13.01,2013-04-05 21:27:00,
2013-04-05 17:32:00,54.1,11.6,0.00,SSW,197,6.7,11.0,18,0.00,,,0.00,VWS V13.01,2013-04-05 21:32:00,
2013-04-05 17:38:00,54.0,11.4,0.00,WNW,291,8.1,8.7,18,0.00,,,0.00,VWS V13.01,2013-04-05 21:38:00,
2013-04-05 17:43:00,53.6,11.1,0.00,SW,231,8.7,22.8,18,0.00,,,0.00,VWS V13.01,2013-04-05 21:43:00,
2013-04-05 17:48:00,53.1,10.7,0.00,West,279,8.7,12.8,18,0.00,,,0.00,VWS V13.01,2013-04-05 21:48:00,
2013-04-05 17:53:00,53.1,10.7,0.00,WNW,284,8.3,13.2,18,0.00,,,0.00,VWS V13.01,2013-04-05 21:53:00,
2013-04-05 17:58:00,53.1,10.7,0.00,West,273,4.9,6.3,18,0.00,,,0.00,VWS V13.01,2013-04-05 21:58:00,
2013-04-05 18:03:00,52.9,10.6,0.00,NW,321,8.1,12.3,18,0.00,,,0.00,VWS V13.01,2013-04-05 22:03:00,
2013-04-05 18:09:00,52.7,10.4,0.00,West,261,7.6,11.0,18,0.00,,,0.00,VWS V13.01,2013-04-05 22:09:00,
2013-04-05 18:14:00,52.2,10.0,0.00,SW,217,6.3,7.6,18,0.00,,,0.00,VWS V13.01,2013-04-05 22:14:00,
2013-04-05 18:19:00,51.8,9.7,0.00,North,357,5.4,11.0,18,0.00,,,0.00,VWS V13.01,2013-04-05 22:19:00,
2013-04-05 18:24:00,51.1,10.3,0.00,WSW,254,7.6,8.7,19,0.00,,,0.00,VWS V13.01,2013-04-05 22:24:00,
2013-04-05 18:29:00,50.7,10.0,0.00,West,267,5.8,10.1,19,0.00,,,0.00,VWS V13.01,2013-04-05 22:29:00,
2013-04-05 18:34:00,50.5,9.8,0.00,West,266,8.3,12.3,19,0.00,,,0.00,VWS V13.01,2013-04-05 22:34:00,
2013-04-05 18:39:00,50.2,9.5,0.00,WNW,284,6.3,6.3,19,0.00,,,0.00,VWS V13.01,2013-04-05 22:39:00,
2013-04-05 18:44:00,49.6,9.1,0.00,West,269,8.1,8.1,19,0.00,,,0.00,VWS V13.01,2013-04-05 22:44:00,
2013-04-05 18:49:00,49.3,5.0,0.00,North,353,7.6,10.1,16,0.00,,,0.00,VWS V13.01,2013-04-05 22:49:00,
2013-04-05 18:54:00,48.7,4.6,0.00,West,260,3.6,8.1,16,0.00,,,0.00,VWS V13.01,2013-04-05 22:54:00,
2013-04-05 18:59:00,48.2,4.1,0.00,WSW,241,8.1,8.7,16,0.00,,,0.00,VWS V13.01,2013-04-05 22:59:00,
2013-04-05 19:04:00,47.7,5.0,0.00,NW,312,8.3,9.6,17,0.00,,,0.00,VWS V13.01,2013-04-05 23:04:00,
2013-04-05 19:09:00,47.1,4.6,0.00,West,278,10.5,10.5,17,0.00,,,0.00,VWS V13.01,2013-04-05 23:09:00,
2013-04-05 19:14:00,46.6,4.1,0.00,West,262,8.3,8.7,17,0.00,,,0.00,VWS V13.01,2013-04-05 23:14:00,
2013-04-05 19:19:00,46.2,3.8,0.00,WSW,257,9.6,11.0,17,0.00,,,0.00,VWS V13.01,2013-04-05 23:19:00,
2013-04-05 19:24:00,45.9,3.5,0.00,WNW,292,6.3,8.3,17,0.00,,,0.00,VWS V13.01,2013-04-05 23:24:00,
2013-04-05 19:30:00,45.5,3.2,0.00,WSW,249,3.6,14.5,17,0.00,,,0.00,VWS V13.01,2013-04-05 23:30:00,
2013-04-05 19:35:00,45.1,2.9,0.00,WSW,252,6.3,8.3,17,0.00,,,0.00,VWS V13.01,2013-04-05 23:35:00,
2013-04-05 19:40:00,44.8,2.6,0.00,WSW,243,5.4,5.8,17,0.00,,,0.00,VWS V13.01,2013-04-05 23:40:00,
2013-04-05 19:45:00,44.6,2.5,0.00,West,272,3.6,4.0,17,0.00,,,0.00,VWS V13.01,2013-04-05 23:45:00,
2013-04-05 19:50:00,44.2,3.4,0.00,WNW,283,5.8,8.1,18,0.00,,,0.00,VWS V13.01,2013-04-05 23:50:00,
2013-04-05 19:55:00,44.2,3.4,0.00,West,269,5.8,5.8,18,0.00,,,0.00,VWS V13.01,2013-04-05 23:55:00,
2013-04-05 20:00:00,44.1,3.3,0.00,WNW,285,6.3,6.3,18,0.00,,,0.00,VWS V13.01,2013-04-06 00:00:00,
2013-04-05 20:05:00,43.7,3.0,0.00,West,270,8.7,8.7,18,0.00,,,0.00,VWS V13.01,2013-04-06 00:05:00,
2013-04-05 20:10:00,43.7,3.0,0.00,WSW,255,7.6,8.3,18,0.00,,,0.00,VWS V13.01,2013-04-06 00:10:00,
2013-04-05 20:15:00,43.5,2.8,0.00,WNW,283,3.1,3.6,18,0.00,,,0.00,VWS V13.01,2013-04-06 00:15:00,
2013-04-05 20:20:00,43.3,2.7,0.00,WSW,244,2.7,4.9,18,0.00,,,0.00,VWS V13.01,2013-04-06 00:20:00,
2013-04-05 20:25:00,43.2,2.5,0.00,WSW,255,8.1,8.1,18,0.00,,,0.00,VWS V13.01,2013-04-06 00:25:00,
2013-04-05 20:31:00,43.0,2.4,0.00,West,278,5.4,8.7,18,0.00,,,0.00,VWS V13.01,2013-04-06 00:31:00,
2013-04-05 20:36:00,42.8,2.2,0.00,WNW,296,5.4,5.4,18,0.00,,,0.00,VWS V13.01,2013-04-06 00:36:00,
2013-04-05 20:41:00,42.6,2.1,0.00,WSW,245,6.3,6.3,18,0.00,,,0.00,VWS V13.01,2013-04-06 00:41:00,
2013-04-05 20:46:00,42.4,1.9,0.00,WNW,283,4.9,8.1,18,0.00,,,0.00,VWS V13.01,2013-04-06 00:46:00,
2013-04-05 20:52:00,42.3,1.8,0.00,West,264,4.0,12.8,18,0.00,,,0.00,VWS V13.01,2013-04-06 00:52:00,
2013-04-05 20:57:00,42.3,1.8,0.00,WSW,251,7.6,7.6,18,0.00,,,0.00,VWS V13.01,2013-04-06 00:57:00,
2013-04-05 21:02:00,42.1,1.6,0.00,West,267,7.6,7.6,18,0.00,,,0.00,VWS V13.01,2013-04-06 01:02:00,
2013-04-05 21:07:00,41.7,1.4,0.00,WNW,297,6.3,6.3,18,0.00,,,0.00,VWS V13.01,2013-04-06 01:07:00,
2013-04-05 21:12:00,41.7,1.4,0.00,West,277,6.3,8.7,18,0.00,,,0.00,VWS V13.01,2013-04-06 01:12:00,
2013-04-05 21:17:00,41.4,1.0,0.00,West,260,4.0,5.8,18,0.00,,,0.00,VWS V13.01,2013-04-06 01:17:00,
2013-04-05 21:22:00,41.2,0.9,0.00,WSW,247,3.1,10.5,18,0.00,,,0.00,VWS V13.01,2013-04-06 01:22:00,
2013-04-05 21:27:00,41.0,0.8,0.00,ENE,67,3.1,6.3,18,0.00,,,0.00,VWS V13.01,2013-04-06 01:27:00,
2013-04-05 21:32:00,40.8,0.6,0.00,WSW,238,5.8,7.6,18,0.00,,,0.00,VWS V13.01,2013-04-06 01:32:00,
2013-04-05 21:37:00,40.6,0.5,0.00,WSW,250,6.3,6.7,18,0.00,,,0.00,VWS V13.01,2013-04-06 01:37:00,
2013-04-05 21:42:00,40.3,0.2,0.00,WNW,285,10.5,15.0,18,0.00,,,0.00,VWS V13.01,2013-04-06 01:42:00,
2013-04-05 21:47:00,40.3,0.2,0.00,West,276,5.4,8.3,18,0.00,,,0.00,VWS V13.01,2013-04-06 01:47:00,
2013-04-05 21:52:00,40.1,0.0,0.00,WNW,285,4.0,5.4,18,0.00,,,0.00,VWS V13.01,2013-04-06 01:52:00,
2013-04-05 21:57:00,39.9,-0.1,0.00,WSW,249,5.8,5.8,18,0.00,,,0.00,VWS V13.01,2013-04-06 01:57:00,
2013-04-05 22:03:00,39.7,-0.3,0.00,SW,229,8.3,8.3,18,0.00,,,0.00,VWS V13.01,2013-04-06 02:03:00,
2013-04-05 22:08:00,39.6,-0.4,0.00,WNW,299,8.1,10.5,18,0.00,,,0.00,VWS V13.01,2013-04-06 02:08:00,
2013-04-05 22:13:00,39.4,-0.6,0.00,West,276,7.6,8.7,18,0.00,,,0.00,VWS V13.01,2013-04-06 02:13:00,
2013-04-05 22:18:00,39.2,-0.7,0.00,West,275,7.6,7.6,18,0.00,,,0.00,VWS V13.01,2013-04-06 02:18:00,
2013-04-05 22:23:00,39.2,-0.7,0.00,West,270,3.1,6.3,18,0.00,,,0.00,VWS V13.01,2013-04-06 02:23:00,
2013-04-05 22:28:00,39.2,2.6,0.00,NW,307,8.3,8.3,21,0.00,,,0.00,VWS V13.01,2013-04-06 02:28:00,
2013-04-05 22:33:00,39.0,2.4,0.00,WNW,299,12.3,12.3,21,0.00,,,0.00,VWS V13.01,2013-04-06 02:33:00,
2013-04-05 22:38:00,38.8,2.3,0.00,WNW,283,6.3,6.3,21,0.00,,,0.00,VWS V13.01,2013-04-06 02:38:00,
2013-04-05 22:43:00,38.7,2.1,0.00,WSW,256,4.0,7.2,21,0.00,,,0.00,VWS V13.01,2013-04-06 02:43:00,
2013-04-05 22:48:00,38.7,2.1,0.00,WNW,288,11.0,15.4,21,0.00,,,0.00,VWS V13.01,2013-04-06 02:48:00,
2013-04-05 22:53:00,38.5,2.0,0.00,WNW,290,4.0,5.4,21,0.00,,,0.00,VWS V13.01,2013-04-06 02:53:00,
2013-04-05 22:58:00,38.3,1.8,0.00,WNW,292,5.4,5.4,21,0.00,,,0.00,VWS V13.01,2013-04-06 02:58:00,
2013-04-05 23:04:00,38.1,1.6,0.00,NW,324,7.6,7.6,21,0.00,,,0.00,VWS V13.01,2013-04-06 03:04:00,
2013-04-05 23:09:00,37.9,1.5,0.00,NW,315,5.4,6.3,21,0.00,,,0.00,VWS V13.01,2013-04-06 03:09:00,
2013-04-05 23:14:00,38.1,1.6,0.00,WSW,243,6.3,6.3,21,0.00,,,0.00,VWS V13.01,2013-04-06 03:14:00,
2013-04-05 23:19:00,37.9,1.5,0.00,West,263,6.7,7.2,21,0.00,,,0.00,VWS V13.01,2013-04-06 03:19:00,
2013-04-05 23:24:00,37.9,1.5,0.00,West,268,5.8,7.6,21,0.00,,,0.00,VWS V13.01,2013-04-06 03:24:00,
2013-04-05 23:29:00,37.9,1.5,0.00,WNW,299,10.1,10.1,21,0.00,,,0.00,VWS V13.01,2013-04-06 03:29:00,
2013-04-05 23:34:00,37.8,1.4,0.00,West,278,3.6,4.9,21,0.00,,,0.00,VWS V13.01,2013-04-06 03:34:00,
2013-04-05 23:39:00,37.6,1.2,0.00,West,277,0.0,0.0,21,0.00,,,0.00,VWS V13.01,2013-04-06 03:39:00,
2013-04-05 23:44:00,37.4,1.0,0.00,West,274,0.0,0.0,21,0.00,,,0.00,VWS V13.01,2013-04-06 03:44:00,
2013-04-05 23:49:00,37.4,1.0,0.00,NW,308,6.3,6.3,21,0.00,,,0.00,VWS V13.01,2013-04-06 03:49:00,
2013-04-05 23:55:00,37.4,1.0,0.00,WSW,252,4.9,4.9,21,0.00,,,0.00,VWS V13.01,2013-04-06 03:55:00,